sensor_id;sensor_type;location;lat;lon;timestamp;P1;durP1;ratioP1;P2;durP2;ratioP2
40997;SDS011;26740;45.944;12.480;2022-10-30T00:01:31;11.98;;;7.07;;
40997;SDS011;26740;45.944;12.480;2022-10-30T00:03:57;11.93;;;6.85;;
40997;SDS011;26740;45.944;12.480;2022-10-30T00:06:23;14.30;;;7.75;;
40997;SDS011;26740;45.944;12.480;2022-10-30T00:08:48;9.05;;;6.10;;
40997;SDS011;26740;45.944;12.480;2022-10-30T00:11:14;8.25;;;6.47;;
40997;SDS011;26740;45.944;12.480;2022-10-30T00:13:41;11.07;;;5.88;;
40997;SDS011;26740;45.944;12.480;2022-10-30T00:16:09;11.55;;;6.57;;
40997;SDS011;26740;45.944;12.480;2022-10-30T00:18:35;10.82;;;7.05;;
40997;SDS011;26740;45.944;12.480;2022-10-30T00:21:09;8.25;;;5.90;;
40997;SDS011;26740;45.944;12.480;2022-10-30T00:23:44;10.45;;;6.13;;
40997;SDS011;26740;45.944;12.480;2022-10-30T00:26:11;11.02;;;6.97;;
40997;SDS011;26740;45.944;12.480;2022-10-30T00:28:37;16.75;;;6.38;;
40997;SDS011;26740;45.944;12.480;2022-10-30T00:31:03;9.35;;;6.25;;
40997;SDS011;26740;45.944;12.480;2022-10-30T00:33:32;11.55;;;6.15;;
40997;SDS011;26740;45.944;12.480;2022-10-30T00:35:58;11.95;;;6.93;;
40997;SDS011;26740;45.944;12.480;2022-10-30T00:38:24;10.27;;;6.82;;
40997;SDS011;26740;45.944;12.480;2022-10-30T00:40:49;12.82;;;6.88;;
40997;SDS011;26740;45.944;12.480;2022-10-30T00:43:29;12.15;;;6.22;;
40997;SDS011;26740;45.944;12.480;2022-10-30T00:45:59;14.07;;;6.43;;
40997;SDS011;26740;45.944;12.480;2022-10-30T00:48:28;11.45;;;6.55;;
40997;SDS011;26740;45.944;12.480;2022-10-30T00:50:54;7.80;;;5.78;;
40997;SDS011;26740;45.944;12.480;2022-10-30T00:53:22;8.88;;;6.18;;
40997;SDS011;26740;45.944;12.480;2022-10-30T00:55:49;14.98;;;6.90;;
40997;SDS011;26740;45.944;12.480;2022-10-30T00:58:21;7.07;;;5.35;;
40997;SDS011;26740;45.944;12.480;2022-10-30T01:00:53;8.18;;;4.93;;
40997;SDS011;26740;45.944;12.480;2022-10-30T01:03:22;7.47;;;5.07;;
40997;SDS011;26740;45.944;12.480;2022-10-30T01:05:52;8.40;;;6.03;;
40997;SDS011;26740;45.944;12.480;2022-10-30T01:08:21;8.02;;;5.88;;
40997;SDS011;26740;45.944;12.480;2022-10-30T01:10:47;8.00;;;5.32;;
40997;SDS011;26740;45.944;12.480;2022-10-30T01:13:14;8.80;;;5.88;;
40997;SDS011;26740;45.944;12.480;2022-10-30T01:16:06;9.30;;;5.75;;
40997;SDS011;26740;45.944;12.480;2022-10-30T01:18:50;6.82;;;4.88;;
40997;SDS011;26740;45.944;12.480;2022-10-30T01:21:34;9.15;;;5.78;;
40997;SDS011;26740;45.944;12.480;2022-10-30T01:29:54;7.75;;;4.38;;
40997;SDS011;26740;45.944;12.480;2022-10-30T01:35:17;9.05;;;5.07;;
40997;SDS011;26740;45.944;12.480;2022-10-30T01:38:03;9.90;;;5.63;;
40997;SDS011;26740;45.944;12.480;2022-10-30T01:40:35;7.90;;;5.10;;
40997;SDS011;26740;45.944;12.480;2022-10-30T01:43:01;8.73;;;4.93;;
40997;SDS011;26740;45.944;12.480;2022-10-30T01:50:46;14.65;;;5.57;;
40997;SDS011;26740;45.944;12.480;2022-10-30T01:58:40;12.43;;;5.57;;
40997;SDS011;26740;45.944;12.480;2022-10-30T02:01:14;7.53;;;4.72;;
40997;SDS011;26740;45.944;12.480;2022-10-30T02:03:41;8.55;;;5.47;;
40997;SDS011;26740;45.944;12.480;2022-10-30T02:06:08;15.15;;;4.70;;
40997;SDS011;26740;45.944;12.480;2022-10-30T02:08:34;7.20;;;4.10;;
40997;SDS011;26740;45.944;12.480;2022-10-30T02:11:00;9.38;;;5.00;;
40997;SDS011;26740;45.944;12.480;2022-10-30T02:13:26;9.23;;;4.70;;
40997;SDS011;26740;45.944;12.480;2022-10-30T02:15:52;8.30;;;4.47;;
40997;SDS011;26740;45.944;12.480;2022-10-30T02:18:18;8.82;;;4.70;;
40997;SDS011;26740;45.944;12.480;2022-10-30T02:20:43;9.82;;;4.95;;
40997;SDS011;26740;45.944;12.480;2022-10-30T02:23:09;7.82;;;4.60;;
40997;SDS011;26740;45.944;12.480;2022-10-30T02:25:40;10.38;;;4.88;;
40997;SDS011;26740;45.944;12.480;2022-10-30T02:28:06;13.25;;;4.90;;
40997;SDS011;26740;45.944;12.480;2022-10-30T02:30:31;11.27;;;4.22;;
40997;SDS011;26740;45.944;12.480;2022-10-30T02:32:57;15.43;;;4.40;;
40997;SDS011;26740;45.944;12.480;2022-10-30T02:35:23;11.27;;;5.18;;
40997;SDS011;26740;45.944;12.480;2022-10-30T02:37:48;6.47;;;3.88;;
40997;SDS011;26740;45.944;12.480;2022-10-30T02:40:14;5.65;;;3.63;;
40997;SDS011;26740;45.944;12.480;2022-10-30T02:42:40;16.33;;;5.18;;
40997;SDS011;26740;45.944;12.480;2022-10-30T02:45:06;6.05;;;3.92;;
40997;SDS011;26740;45.944;12.480;2022-10-30T02:47:32;9.10;;;3.88;;
40997;SDS011;26740;45.944;12.480;2022-10-30T02:49:58;9.25;;;4.25;;
40997;SDS011;26740;45.944;12.480;2022-10-30T02:52:23;8.20;;;3.92;;
40997;SDS011;26740;45.944;12.480;2022-10-30T02:54:49;8.48;;;4.82;;
40997;SDS011;26740;45.944;12.480;2022-10-30T02:57:14;10.15;;;3.40;;
40997;SDS011;26740;45.944;12.480;2022-10-30T02:59:40;6.57;;;3.50;;
40997;SDS011;26740;45.944;12.480;2022-10-30T03:02:05;5.65;;;4.20;;
40997;SDS011;26740;45.944;12.480;2022-10-30T03:04:31;9.00;;;4.45;;
40997;SDS011;26740;45.944;12.480;2022-10-30T03:06:57;7.15;;;4.32;;
40997;SDS011;26740;45.944;12.480;2022-10-30T03:09:22;8.77;;;4.95;;
40997;SDS011;26740;45.944;12.480;2022-10-30T03:11:48;5.57;;;4.32;;
40997;SDS011;26740;45.944;12.480;2022-10-30T03:14:13;7.30;;;4.47;;
40997;SDS011;26740;45.944;12.480;2022-10-30T03:16:39;8.23;;;3.88;;
40997;SDS011;26740;45.944;12.480;2022-10-30T03:19:05;12.05;;;3.97;;
40997;SDS011;26740;45.944;12.480;2022-10-30T03:21:30;8.68;;;5.38;;
40997;SDS011;26740;45.944;12.480;2022-10-30T03:23:56;5.55;;;3.75;;
40997;SDS011;26740;45.944;12.480;2022-10-30T03:26:22;8.00;;;4.18;;
40997;SDS011;26740;45.944;12.480;2022-10-30T03:28:47;4.25;;;3.65;;
40997;SDS011;26740;45.944;12.480;2022-10-30T03:31:15;7.72;;;4.22;;
40997;SDS011;26740;45.944;12.480;2022-10-30T03:33:42;8.48;;;4.68;;
40997;SDS011;26740;45.944;12.480;2022-10-30T03:36:09;4.82;;;3.13;;
40997;SDS011;26740;45.944;12.480;2022-10-30T03:38:36;4.93;;;3.67;;
40997;SDS011;26740;45.944;12.480;2022-10-30T03:41:02;9.68;;;3.63;;
40997;SDS011;26740;45.944;12.480;2022-10-30T03:43:29;6.45;;;3.95;;
40997;SDS011;26740;45.944;12.480;2022-10-30T03:45:55;10.90;;;3.85;;
40997;SDS011;26740;45.944;12.480;2022-10-30T03:48:25;4.72;;;3.33;;
40997;SDS011;26740;45.944;12.480;2022-10-30T03:50:53;5.80;;;4.22;;
40997;SDS011;26740;45.944;12.480;2022-10-30T03:53:21;6.00;;;3.90;;
40997;SDS011;26740;45.944;12.480;2022-10-30T03:55:59;5.88;;;4.00;;
40997;SDS011;26740;45.944;12.480;2022-10-30T03:58:27;8.05;;;4.30;;
40997;SDS011;26740;45.944;12.480;2022-10-30T04:00:54;7.22;;;3.47;;
40997;SDS011;26740;45.944;12.480;2022-10-30T04:03:25;6.43;;;4.05;;
40997;SDS011;26740;45.944;12.480;2022-10-30T04:05:54;5.60;;;3.58;;
40997;SDS011;26740;45.944;12.480;2022-10-30T04:08:19;7.60;;;4.45;;
40997;SDS011;26740;45.944;12.480;2022-10-30T04:10:45;5.63;;;3.35;;
40997;SDS011;26740;45.944;12.480;2022-10-30T04:13:12;10.95;;;4.25;;
40997;SDS011;26740;45.944;12.480;2022-10-30T04:15:39;6.10;;;3.72;;
40997;SDS011;26740;45.944;12.480;2022-10-30T04:18:06;10.75;;;3.55;;
40997;SDS011;26740;45.944;12.480;2022-10-30T04:20:34;8.90;;;3.58;;
40997;SDS011;26740;45.944;12.480;2022-10-30T04:23:03;7.35;;;3.58;;
40997;SDS011;26740;45.944;12.480;2022-10-30T04:25:31;5.43;;;3.63;;
40997;SDS011;26740;45.944;12.480;2022-10-30T04:27:58;7.35;;;3.75;;
40997;SDS011;26740;45.944;12.480;2022-10-30T04:30:24;8.45;;;3.97;;
40997;SDS011;26740;45.944;12.480;2022-10-30T04:32:54;6.93;;;3.33;;
40997;SDS011;26740;45.944;12.480;2022-10-30T04:35:21;5.43;;;3.83;;
40997;SDS011;26740;45.944;12.480;2022-10-30T04:37:56;8.82;;;3.72;;
40997;SDS011;26740;45.944;12.480;2022-10-30T04:40:26;7.45;;;5.10;;
40997;SDS011;26740;45.944;12.480;2022-10-30T04:42:53;9.95;;;4.35;;
40997;SDS011;26740;45.944;12.480;2022-10-30T04:45:19;9.75;;;4.25;;
40997;SDS011;26740;45.944;12.480;2022-10-30T04:47:45;10.75;;;3.67;;
40997;SDS011;26740;45.944;12.480;2022-10-30T04:50:11;10.65;;;3.85;;
40997;SDS011;26740;45.944;12.480;2022-10-30T04:52:38;9.20;;;4.18;;
40997;SDS011;26740;45.944;12.480;2022-10-30T04:55:04;7.25;;;4.43;;
40997;SDS011;26740;45.944;12.480;2022-10-30T04:57:31;8.88;;;4.10;;
40997;SDS011;26740;45.944;12.480;2022-10-30T04:59:57;10.07;;;4.25;;
40997;SDS011;26740;45.944;12.480;2022-10-30T05:02:23;7.78;;;4.15;;
40997;SDS011;26740;45.944;12.480;2022-10-30T05:04:48;5.20;;;4.25;;
40997;SDS011;26740;45.944;12.480;2022-10-30T05:07:14;5.82;;;3.28;;
40997;SDS011;26740;45.944;12.480;2022-10-30T05:09:41;7.18;;;4.07;;
40997;SDS011;26740;45.944;12.480;2022-10-30T05:12:07;6.75;;;3.88;;
40997;SDS011;26740;45.944;12.480;2022-10-30T05:14:34;8.95;;;4.07;;
40997;SDS011;26740;45.944;12.480;2022-10-30T05:17:00;7.20;;;3.22;;
40997;SDS011;26740;45.944;12.480;2022-10-30T05:19:25;3.72;;;3.20;;
40997;SDS011;26740;45.944;12.480;2022-10-30T05:21:51;7.88;;;3.20;;
40997;SDS011;26740;45.944;12.480;2022-10-30T05:24:17;4.38;;;2.95;;
40997;SDS011;26740;45.944;12.480;2022-10-30T05:26:43;5.28;;;3.72;;
40997;SDS011;26740;45.944;12.480;2022-10-30T05:29:09;7.13;;;4.18;;
40997;SDS011;26740;45.944;12.480;2022-10-30T05:31:34;4.28;;;2.92;;
40997;SDS011;26740;45.944;12.480;2022-10-30T05:34:00;5.25;;;3.17;;
40997;SDS011;26740;45.944;12.480;2022-10-30T05:36:26;7.70;;;4.28;;
40997;SDS011;26740;45.944;12.480;2022-10-30T05:38:52;6.70;;;2.75;;
40997;SDS011;26740;45.944;12.480;2022-10-30T05:41:18;7.60;;;3.58;;
40997;SDS011;26740;45.944;12.480;2022-10-30T05:43:43;6.43;;;3.47;;
40997;SDS011;26740;45.944;12.480;2022-10-30T05:46:09;9.77;;;3.35;;
40997;SDS011;26740;45.944;12.480;2022-10-30T05:48:34;7.55;;;3.55;;
40997;SDS011;26740;45.944;12.480;2022-10-30T05:51:00;6.53;;;4.57;;
40997;SDS011;26740;45.944;12.480;2022-10-30T05:53:26;7.25;;;4.38;;
40997;SDS011;26740;45.944;12.480;2022-10-30T05:55:55;5.40;;;3.85;;
40997;SDS011;26740;45.944;12.480;2022-10-30T05:58:22;5.80;;;3.10;;
40997;SDS011;26740;45.944;12.480;2022-10-30T06:00:47;6.85;;;3.55;;
40997;SDS011;26740;45.944;12.480;2022-10-30T06:03:13;6.43;;;3.33;;
40997;SDS011;26740;45.944;12.480;2022-10-30T06:05:39;6.10;;;4.57;;
40997;SDS011;26740;45.944;12.480;2022-10-30T06:08:08;5.85;;;4.38;;
40997;SDS011;26740;45.944;12.480;2022-10-30T06:10:33;6.88;;;3.20;;
40997;SDS011;26740;45.944;12.480;2022-10-30T06:13:00;5.78;;;4.03;;
40997;SDS011;26740;45.944;12.480;2022-10-30T06:15:28;8.25;;;4.53;;
40997;SDS011;26740;45.944;12.480;2022-10-30T06:17:54;11.02;;;4.78;;
40997;SDS011;26740;45.944;12.480;2022-10-30T06:20:22;8.40;;;4.57;;
40997;SDS011;26740;45.944;12.480;2022-10-30T06:22:59;9.63;;;4.50;;
40997;SDS011;26740;45.944;12.480;2022-10-30T06:25:27;9.25;;;4.82;;
40997;SDS011;26740;45.944;12.480;2022-10-30T06:27:54;10.02;;;5.20;;
40997;SDS011;26740;45.944;12.480;2022-10-30T06:30:19;10.30;;;4.13;;
40997;SDS011;26740;45.944;12.480;2022-10-30T06:32:46;5.60;;;4.15;;
40997;SDS011;26740;45.944;12.480;2022-10-30T06:35:12;7.28;;;4.20;;
40997;SDS011;26740;45.944;12.480;2022-10-30T06:37:43;11.40;;;3.83;;
40997;SDS011;26740;45.944;12.480;2022-10-30T06:40:10;12.15;;;4.15;;
40997;SDS011;26740;45.944;12.480;2022-10-30T06:42:42;7.55;;;3.97;;
40997;SDS011;26740;45.944;12.480;2022-10-30T06:45:10;9.40;;;4.18;;
40997;SDS011;26740;45.944;12.480;2022-10-30T06:47:36;5.47;;;3.88;;
40997;SDS011;26740;45.944;12.480;2022-10-30T06:50:03;9.18;;;3.70;;
40997;SDS011;26740;45.944;12.480;2022-10-30T06:52:30;5.70;;;3.30;;
40997;SDS011;26740;45.944;12.480;2022-10-30T06:54:56;9.55;;;3.70;;
40997;SDS011;26740;45.944;12.480;2022-10-30T06:57:22;7.32;;;3.90;;
40997;SDS011;26740;45.944;12.480;2022-10-30T06:59:47;8.80;;;3.83;;
40997;SDS011;26740;45.944;12.480;2022-10-30T07:02:13;8.85;;;4.10;;
40997;SDS011;26740;45.944;12.480;2022-10-30T07:04:38;8.73;;;3.28;;
40997;SDS011;26740;45.944;12.480;2022-10-30T07:07:04;5.95;;;3.67;;
40997;SDS011;26740;45.944;12.480;2022-10-30T07:09:30;5.78;;;3.80;;
40997;SDS011;26740;45.944;12.480;2022-10-30T07:11:55;8.23;;;3.65;;
40997;SDS011;26740;45.944;12.480;2022-10-30T07:14:21;9.02;;;3.75;;
40997;SDS011;26740;45.944;12.480;2022-10-30T07:16:47;6.95;;;4.22;;
40997;SDS011;26740;45.944;12.480;2022-10-30T07:19:12;8.63;;;4.65;;
40997;SDS011;26740;45.944;12.480;2022-10-30T07:21:38;8.35;;;4.38;;
40997;SDS011;26740;45.944;12.480;2022-10-30T07:24:03;6.93;;;4.22;;
40997;SDS011;26740;45.944;12.480;2022-10-30T07:26:29;12.25;;;5.60;;
40997;SDS011;26740;45.944;12.480;2022-10-30T07:28:55;9.88;;;4.82;;
40997;SDS011;26740;45.944;12.480;2022-10-30T07:31:20;11.07;;;4.93;;
40997;SDS011;26740;45.944;12.480;2022-10-30T07:33:46;13.15;;;4.60;;
40997;SDS011;26740;45.944;12.480;2022-10-30T07:36:12;7.22;;;4.03;;
40997;SDS011;26740;45.944;12.480;2022-10-30T07:38:39;11.40;;;5.03;;
40997;SDS011;26740;45.944;12.480;2022-10-30T07:41:04;11.68;;;5.55;;
40997;SDS011;26740;45.944;12.480;2022-10-30T07:43:30;6.22;;;4.00;;
40997;SDS011;26740;45.944;12.480;2022-10-30T07:45:55;10.63;;;5.47;;
40997;SDS011;26740;45.944;12.480;2022-10-30T07:48:21;9.70;;;5.03;;
40997;SDS011;26740;45.944;12.480;2022-10-30T07:50:47;13.70;;;5.15;;
40997;SDS011;26740;45.944;12.480;2022-10-30T07:53:13;11.30;;;4.75;;
40997;SDS011;26740;45.944;12.480;2022-10-30T07:55:38;9.77;;;4.82;;
40997;SDS011;26740;45.944;12.480;2022-10-30T07:58:06;10.65;;;4.82;;
40997;SDS011;26740;45.944;12.480;2022-10-30T08:00:31;7.70;;;3.80;;
40997;SDS011;26740;45.944;12.480;2022-10-30T08:02:57;13.88;;;5.30;;
40997;SDS011;26740;45.944;12.480;2022-10-30T08:05:23;7.60;;;4.40;;
40997;SDS011;26740;45.944;12.480;2022-10-30T08:07:49;12.40;;;4.18;;
40997;SDS011;26740;45.944;12.480;2022-10-30T08:10:14;8.52;;;4.75;;
40997;SDS011;26740;45.944;12.480;2022-10-30T08:12:40;11.93;;;5.38;;
40997;SDS011;26740;45.944;12.480;2022-10-30T08:15:08;8.77;;;5.13;;
40997;SDS011;26740;45.944;12.480;2022-10-30T08:17:43;10.23;;;4.80;;
40997;SDS011;26740;45.944;12.480;2022-10-30T08:20:12;8.25;;;4.88;;
40997;SDS011;26740;45.944;12.480;2022-10-30T08:22:43;7.78;;;4.90;;
40997;SDS011;26740;45.944;12.480;2022-10-30T08:25:12;14.70;;;4.65;;
40997;SDS011;26740;45.944;12.480;2022-10-30T08:27:47;10.75;;;4.78;;
40997;SDS011;26740;45.944;12.480;2022-10-30T08:30:15;11.00;;;4.30;;
40997;SDS011;26740;45.944;12.480;2022-10-30T08:32:41;15.50;;;5.05;;
40997;SDS011;26740;45.944;12.480;2022-10-30T08:35:07;13.98;;;5.40;;
40997;SDS011;26740;45.944;12.480;2022-10-30T08:37:33;13.50;;;6.05;;
40997;SDS011;26740;45.944;12.480;2022-10-30T08:39:59;11.05;;;4.63;;
40997;SDS011;26740;45.944;12.480;2022-10-30T08:42:24;13.27;;;4.25;;
40997;SDS011;26740;45.944;12.480;2022-10-30T08:44:50;10.75;;;4.40;;
40997;SDS011;26740;45.944;12.480;2022-10-30T08:47:16;6.45;;;4.20;;
40997;SDS011;26740;45.944;12.480;2022-10-30T08:49:42;7.47;;;3.75;;
40997;SDS011;26740;45.944;12.480;2022-10-30T08:52:07;11.63;;;5.45;;
40997;SDS011;26740;45.944;12.480;2022-10-30T08:54:33;11.38;;;5.03;;
40997;SDS011;26740;45.944;12.480;2022-10-30T08:56:59;13.32;;;5.97;;
40997;SDS011;26740;45.944;12.480;2022-10-30T08:59:25;8.00;;;4.70;;
40997;SDS011;26740;45.944;12.480;2022-10-30T09:01:51;12.93;;;5.20;;
40997;SDS011;26740;45.944;12.480;2022-10-30T09:04:16;13.13;;;5.57;;
40997;SDS011;26740;45.944;12.480;2022-10-30T09:06:42;13.20;;;6.32;;
40997;SDS011;26740;45.944;12.480;2022-10-30T09:09:07;14.48;;;6.03;;
40997;SDS011;26740;45.944;12.480;2022-10-30T09:11:33;13.63;;;7.32;;
40997;SDS011;26740;45.944;12.480;2022-10-30T09:13:59;18.60;;;7.22;;
40997;SDS011;26740;45.944;12.480;2022-10-30T09:16:24;8.05;;;5.63;;
40997;SDS011;26740;45.944;12.480;2022-10-30T09:18:50;14.18;;;7.70;;
40997;SDS011;26740;45.944;12.480;2022-10-30T09:21:15;16.25;;;7.63;;
40997;SDS011;26740;45.944;12.480;2022-10-30T09:23:41;14.55;;;7.35;;
40997;SDS011;26740;45.944;12.480;2022-10-30T09:26:08;17.45;;;7.85;;
40997;SDS011;26740;45.944;12.480;2022-10-30T09:28:35;14.38;;;7.72;;
40997;SDS011;26740;45.944;12.480;2022-10-30T09:31:00;10.60;;;7.40;;
40997;SDS011;26740;45.944;12.480;2022-10-30T09:33:27;18.58;;;7.57;;
40997;SDS011;26740;45.944;12.480;2022-10-30T09:35:53;12.85;;;8.70;;
40997;SDS011;26740;45.944;12.480;2022-10-30T09:38:19;11.57;;;7.88;;
40997;SDS011;26740;45.944;12.480;2022-10-30T09:46:20;15.75;;;8.20;;
40997;SDS011;26740;45.944;12.480;2022-10-30T09:56:40;13.63;;;7.78;;
40997;SDS011;26740;45.944;12.480;2022-10-30T09:59:19;12.13;;;7.95;;
40997;SDS011;26740;45.944;12.480;2022-10-30T10:04:40;19.27;;;8.75;;
40997;SDS011;26740;45.944;12.480;2022-10-30T10:10:03;16.42;;;7.78;;
40997;SDS011;26740;45.944;12.480;2022-10-30T10:12:38;19.23;;;9.80;;
40997;SDS011;26740;45.944;12.480;2022-10-30T10:15:10;19.25;;;10.32;;
40997;SDS011;26740;45.944;12.480;2022-10-30T10:17:53;17.67;;;10.13;;
40997;SDS011;26740;45.944;12.480;2022-10-30T10:20:29;22.92;;;9.82;;
40997;SDS011;26740;45.944;12.480;2022-10-30T10:22:59;21.10;;;10.70;;
40997;SDS011;26740;45.944;12.480;2022-10-30T10:25:36;17.15;;;10.93;;
40997;SDS011;26740;45.944;12.480;2022-10-30T10:28:26;15.10;;;9.88;;
40997;SDS011;26740;45.944;12.480;2022-10-30T10:36:36;28.95;;;10.73;;
40997;SDS011;26740;45.944;12.480;2022-10-30T10:39:40;21.40;;;12.02;;
40997;SDS011;26740;45.944;12.480;2022-10-30T10:50:34;23.75;;;12.65;;
40997;SDS011;26740;45.944;12.480;2022-10-30T10:53:09;22.52;;;12.30;;
40997;SDS011;26740;45.944;12.480;2022-10-30T10:55:43;22.05;;;12.18;;
40997;SDS011;26740;45.944;12.480;2022-10-30T10:58:16;22.88;;;13.18;;
40997;SDS011;26740;45.944;12.480;2022-10-30T11:00:51;20.05;;;12.15;;
40997;SDS011;26740;45.944;12.480;2022-10-30T11:03:22;21.60;;;13.10;;
40997;SDS011;26740;45.944;12.480;2022-10-30T11:05:55;24.23;;;12.35;;
40997;SDS011;26740;45.944;12.480;2022-10-30T11:08:27;27.55;;;12.48;;
40997;SDS011;26740;45.944;12.480;2022-10-30T11:10:55;22.95;;;12.75;;
40997;SDS011;26740;45.944;12.480;2022-10-30T11:13:39;23.13;;;11.73;;
40997;SDS011;26740;45.944;12.480;2022-10-30T11:18:51;26.42;;;13.98;;
40997;SDS011;26740;45.944;12.480;2022-10-30T11:21:24;21.63;;;13.40;;
40997;SDS011;26740;45.944;12.480;2022-10-30T11:23:51;23.48;;;13.02;;
40997;SDS011;26740;45.944;12.480;2022-10-30T11:31:25;20.30;;;12.73;;
40997;SDS011;26740;45.944;12.480;2022-10-30T11:33:52;22.73;;;12.82;;
40997;SDS011;26740;45.944;12.480;2022-10-30T11:36:22;19.52;;;12.90;;
40997;SDS011;26740;45.944;12.480;2022-10-30T11:38:50;20.73;;;13.05;;
40997;SDS011;26740;45.944;12.480;2022-10-30T11:41:16;24.08;;;12.00;;
40997;SDS011;26740;45.944;12.480;2022-10-30T11:43:43;22.85;;;12.35;;
40997;SDS011;26740;45.944;12.480;2022-10-30T11:46:10;23.98;;;12.45;;
40997;SDS011;26740;45.944;12.480;2022-10-30T11:48:45;20.55;;;13.13;;
40997;SDS011;26740;45.944;12.480;2022-10-30T11:51:13;20.45;;;12.15;;
40997;SDS011;26740;45.944;12.480;2022-10-30T11:53:57;30.52;;;14.15;;
40997;SDS011;26740;45.944;12.480;2022-10-30T11:56:23;22.55;;;13.40;;
40997;SDS011;26740;45.944;12.480;2022-10-30T11:58:49;22.52;;;11.85;;
40997;SDS011;26740;45.944;12.480;2022-10-30T12:01:22;20.70;;;12.57;;
40997;SDS011;26740;45.944;12.480;2022-10-30T12:03:56;27.02;;;12.43;;
40997;SDS011;26740;45.944;12.480;2022-10-30T12:06:36;21.48;;;11.70;;
40997;SDS011;26740;45.944;12.480;2022-10-30T12:09:08;23.50;;;12.20;;
40997;SDS011;26740;45.944;12.480;2022-10-30T12:11:36;17.92;;;11.00;;
40997;SDS011;26740;45.944;12.480;2022-10-30T12:14:04;16.95;;;10.77;;
40997;SDS011;26740;45.944;12.480;2022-10-30T12:16:31;25.83;;;12.13;;
40997;SDS011;26740;45.944;12.480;2022-10-30T12:19:04;18.10;;;10.30;;
40997;SDS011;26740;45.944;12.480;2022-10-30T12:21:40;20.10;;;11.40;;
40997;SDS011;26740;45.944;12.480;2022-10-30T12:24:19;21.35;;;11.13;;
40997;SDS011;26740;45.944;12.480;2022-10-30T12:26:54;19.08;;;10.93;;
40997;SDS011;26740;45.944;12.480;2022-10-30T12:29:26;17.48;;;10.55;;
40997;SDS011;26740;45.944;12.480;2022-10-30T12:32:10;22.35;;;11.13;;
40997;SDS011;26740;45.944;12.480;2022-10-30T12:35:03;17.13;;;10.63;;
40997;SDS011;26740;45.944;12.480;2022-10-30T12:37:42;20.73;;;10.88;;
40997;SDS011;26740;45.944;12.480;2022-10-30T12:42:41;20.33;;;11.00;;
40997;SDS011;26740;45.944;12.480;2022-10-30T12:45:19;21.17;;;10.55;;
40997;SDS011;26740;45.944;12.480;2022-10-30T12:47:53;13.75;;;9.05;;
40997;SDS011;26740;45.944;12.480;2022-10-30T12:50:45;15.77;;;9.57;;
40997;SDS011;26740;45.944;12.480;2022-10-30T12:53:47;21.55;;;9.82;;
40997;SDS011;26740;45.944;12.480;2022-10-30T12:56:30;16.77;;;8.85;;
40997;SDS011;26740;45.944;12.480;2022-10-30T13:01:43;18.50;;;9.57;;
40997;SDS011;26740;45.944;12.480;2022-10-30T13:04:21;18.15;;;9.35;;
40997;SDS011;26740;45.944;12.480;2022-10-30T13:09:47;19.13;;;9.23;;
40997;SDS011;26740;45.944;12.480;2022-10-30T13:12:28;16.77;;;9.32;;
40997;SDS011;26740;45.944;12.480;2022-10-30T13:15:13;15.90;;;8.98;;
40997;SDS011;26740;45.944;12.480;2022-10-30T13:18:08;17.27;;;9.70;;
40997;SDS011;26740;45.944;12.480;2022-10-30T13:20:38;15.70;;;9.15;;
40997;SDS011;26740;45.944;12.480;2022-10-30T13:23:09;16.17;;;8.63;;
40997;SDS011;26740;45.944;12.480;2022-10-30T13:25:43;17.80;;;9.43;;
40997;SDS011;26740;45.944;12.480;2022-10-30T13:28:24;20.48;;;8.68;;
40997;SDS011;26740;45.944;12.480;2022-10-30T13:33:35;19.20;;;8.23;;
40997;SDS011;26740;45.944;12.480;2022-10-30T13:36:35;15.88;;;8.05;;
40997;SDS011;26740;45.944;12.480;2022-10-30T13:39:24;14.82;;;7.88;;
40997;SDS011;26740;45.944;12.480;2022-10-30T13:50:25;18.10;;;7.90;;
40997;SDS011;26740;45.944;12.480;2022-10-30T13:53:05;14.90;;;8.73;;
40997;SDS011;26740;45.944;12.480;2022-10-30T13:55:39;12.68;;;7.13;;
40997;SDS011;26740;45.944;12.480;2022-10-30T13:58:09;17.02;;;6.38;;
40997;SDS011;26740;45.944;12.480;2022-10-30T14:00:56;15.38;;;7.68;;
40997;SDS011;26740;45.944;12.480;2022-10-30T14:03:38;15.10;;;8.00;;
40997;SDS011;26740;45.944;12.480;2022-10-30T14:11:33;19.27;;;8.00;;
40997;SDS011;26740;45.944;12.480;2022-10-30T14:14:03;14.38;;;7.88;;
40997;SDS011;26740;45.944;12.480;2022-10-30T14:16:32;17.52;;;7.72;;
40997;SDS011;26740;45.944;12.480;2022-10-30T14:19:10;12.15;;;6.50;;
40997;SDS011;26740;45.944;12.480;2022-10-30T14:24:24;15.93;;;8.38;;
40997;SDS011;26740;45.944;12.480;2022-10-30T14:26:56;19.13;;;8.20;;
40997;SDS011;26740;45.944;12.480;2022-10-30T14:29:36;12.57;;;6.95;;
40997;SDS011;26740;45.944;12.480;2022-10-30T14:37:15;22.20;;;6.55;;
40997;SDS011;26740;45.944;12.480;2022-10-30T14:39:47;15.13;;;7.50;;
40997;SDS011;26740;45.944;12.480;2022-10-30T14:53:44;13.55;;;7.15;;
40997;SDS011;26740;45.944;12.480;2022-10-30T14:58:41;12.43;;;6.70;;
40997;SDS011;26740;45.944;12.480;2022-10-30T15:09:33;11.68;;;6.40;;
40997;SDS011;26740;45.944;12.480;2022-10-30T15:14:42;16.40;;;5.97;;
40997;SDS011;26740;45.944;12.480;2022-10-30T15:17:44;12.40;;;6.18;;
40997;SDS011;26740;45.944;12.480;2022-10-30T15:20:13;12.95;;;6.03;;
40997;SDS011;26740;45.944;12.480;2022-10-30T15:22:39;16.45;;;6.72;;
40997;SDS011;26740;45.944;12.480;2022-10-30T15:25:13;18.23;;;7.30;;
40997;SDS011;26740;45.944;12.480;2022-10-30T15:27:42;11.93;;;6.90;;
40997;SDS011;26740;45.944;12.480;2022-10-30T15:30:13;17.60;;;6.57;;
40997;SDS011;26740;45.944;12.480;2022-10-30T15:32:42;15.65;;;5.95;;
40997;SDS011;26740;45.944;12.480;2022-10-30T15:35:19;9.50;;;5.45;;
40997;SDS011;26740;45.944;12.480;2022-10-30T15:38:03;12.60;;;5.50;;
40997;SDS011;26740;45.944;12.480;2022-10-30T15:40:30;14.70;;;6.43;;
40997;SDS011;26740;45.944;12.480;2022-10-30T15:42:59;16.55;;;6.00;;
40997;SDS011;26740;45.944;12.480;2022-10-30T15:48:04;15.73;;;6.53;;
40997;SDS011;26740;45.944;12.480;2022-10-30T15:50:37;15.27;;;7.25;;
40997;SDS011;26740;45.944;12.480;2022-10-30T15:53:16;12.70;;;6.57;;
40997;SDS011;26740;45.944;12.480;2022-10-30T15:55:48;12.50;;;6.47;;
40997;SDS011;26740;45.944;12.480;2022-10-30T15:58:16;16.40;;;7.15;;
40997;SDS011;26740;45.944;12.480;2022-10-30T16:00:56;14.77;;;6.65;;
40997;SDS011;26740;45.944;12.480;2022-10-30T16:03:23;11.85;;;6.57;;
40997;SDS011;26740;45.944;12.480;2022-10-30T16:05:49;12.13;;;6.63;;
40997;SDS011;26740;45.944;12.480;2022-10-30T16:08:22;16.58;;;7.72;;
40997;SDS011;26740;45.944;12.480;2022-10-30T16:10:51;15.45;;;8.45;;
40997;SDS011;26740;45.944;12.480;2022-10-30T16:13:21;15.10;;;8.43;;
40997;SDS011;26740;45.944;12.480;2022-10-30T16:15:49;12.95;;;7.25;;
40997;SDS011;26740;45.944;12.480;2022-10-30T16:18:25;17.70;;;8.30;;
40997;SDS011;26740;45.944;12.480;2022-10-30T16:20:55;16.05;;;7.78;;
40997;SDS011;26740;45.944;12.480;2022-10-30T16:23:26;15.10;;;7.57;;
40997;SDS011;26740;45.944;12.480;2022-10-30T16:25:54;12.95;;;7.90;;
40997;SDS011;26740;45.944;12.480;2022-10-30T16:28:27;20.13;;;7.07;;
40997;SDS011;26740;45.944;12.480;2022-10-30T16:30:58;11.23;;;6.20;;
40997;SDS011;26740;45.944;12.480;2022-10-30T16:33:27;13.90;;;7.18;;
40997;SDS011;26740;45.944;12.480;2022-10-30T16:35:55;14.13;;;7.05;;
40997;SDS011;26740;45.944;12.480;2022-10-30T16:38:22;16.70;;;8.38;;
40997;SDS011;26740;45.944;12.480;2022-10-30T16:40:50;13.80;;;8.18;;